Historyczne dane pomiarowe

Dodano dane terminowe – wersja testowa.

Dane z okresu 1951-2019

Wersja bazy: 1.34 [2019-03-16, lista zmian], aktualizacja planowana na 2019-04-15

Dane meteo z obszaru Polski uzyskane na podstawie danych udostępnionych przez Instytut Meteorologii i Gospodarki Wodnej – Państwowy Instytut Badawczy.

 

Wybierz Datę:    

       

TemperaturaWilgotnośćWiatrCiśnienieOpadyŚniegCzas trwania zjawisk
 Stacja t tx tn tng RH VA  wxwx mslp ppp RRR   cm mm wxwxwxwxwxwxwx
1995-04-17 1.6 6.9 -2.6- 81.3- 7.7 1.0---- 0.0-- 12---------
1995-04-18 3.6 9.4 -2.6- 88.3- 8.0 1.3---- 0.0-- 9---------
1995-04-19 6.4 13.9 0.0- 76.3- 7.3 1.3---- 0.0------------
1995-04-20 11.6 16.4 2.8- 59.3- 7.3 3.0---- 0.0------------
1995-04-21 9.9 19.2 1.5- 75.8- 4.0 1.7---- 0.0------------
1995-04-22 10.9 22.0 0.2- 64.5- 2.0 1.3---- 0.0------------
1995-04-23 10.9 20.2 0.8- 75.3- 2.7 1.7---- 0.0------------
1995-04-24 9.6 17.8 -0.1- 73.0- 1.7 2.0---- 0.0------------
1995-04-25 7.0 14.8 -0.6- 81.8- 6.3 1.3---- 2.4------------
1995-04-26 7.5 9.4 2.1- 98.0- 8.0 1.0---- 10.8------------
1995-04-27 6.4 8.1 4.3- 96.5- 8.0 1.0---- 8.0------------
1995-04-28 7.9 11.4 5.6- 92.3- 6.7 2.0---- 0.4------------
1995-04-29 7.6 12.9 3.5- 78.8- 7.3 1.3---- 0.0------------
1995-04-30 9.0 16.8 -2.5- 73.3- 3.7 1.3---- 0.0------------
1995-05-01 6.2 13.3 -1.0- 80.0- 5.0 1.3---- 0.6------------
1995-05-02 4.0 8.3 -0.2- 65.3- 6.0 1.7---- 0.0------------
1995-05-03 4.6 9.9 -5.0- 55.8- 0.3 1.7---- 0.0------------
1995-05-04 5.7 13.9 -4.1- 77.8- 6.0 1.3---- 1.3------------
1995-05-05 7.8 13.5 1.4- 79.3- 8.0 0.7---- 0.1------------
1995-05-06 10.2 17.3 2.7- 77.5- 7.3 1.3---- 0.5------------
1995-05-07 10.7 15.3 3.3- 54.3- 6.3 3.3---- 0.0------------
1995-05-08 10.1 15.8 -1.5- 65.3- 6.3 1.3---- 0.6------------
1995-05-09 8.5 14.4 5.8- 81.5- 8.0 2.7---- 5.6------------
1995-05-10 5.2 8.9 3.3- 84.0- 6.7 2.3---- 0.0------------
1995-05-11 5.9 11.9 -1.6- 80.8- 7.0 1.3---- 0.0------------
1995-05-12 9.7 15.3 0.0- 78.8- 5.7 1.3---- 4.3------------
1995-05-13 11.7 15.8 8.2- 82.3- 8.0 1.3---- 1.5------------
1995-05-14 5.0 12.4 1.4- 92.5- 8.0 1.7---- 5.4------------
1995-05-15 3.2 6.9 0.6- 76.5- 5.7 1.3---- 0.0------------
1995-05-16 5.7 14.8 -5.7- 71.0- 2.0 1.3---- 0.0------------
146.7 ms

 

Źródłem pochodzenia danych jest Instytut Meteorologii i Gospodarki Wodnej – Państwowy Instytut Badawczy. Dane Instytutu Meteorologii i Gospodarki Wodnej – Państwowego Instytutu Badawczego zostały przetworzone.

Dane źródłowe można odnaleźć na stronie https://dane.imgw.pl